Time;durP1;ratioP1;P1;durP2;ratioP2;P2;SDS_P1;SDS_P2;PMS_P1;PMS_P2;Temp;Humidity;BMP_temperature;BMP_pressure;BME280_temperature;BME280_humidity;BME280_pressure;Samples;Min_cycle;Max_cycle;Signal;HPM_P1;HPM_P2
2023/10/27 00:00:06;;;;;;;35.42;18.38;;;11.50;92.70;;;;;;9168630;19;20010;-69
2023/10/27 00:03:12;;;;;;;35.63;18.88;;;11.50;92.50;;;;;;9166936;19;20022;-69
2023/10/27 00:06:20;;;;;;;34.13;18.98;;;11.50;92.60;;;;;;9168409;19;20015;-69
2023/10/27 00:09:27;;;;;;;36.88;18.73;;;11.50;92.50;;;;;;9165953;19;20029;-69
2023/10/27 00:12:37;;;;;;;35.90;20.05;;;11.60;92.80;;;;;;9163518;19;20011;-69
2023/10/27 00:15:43;;;;;;;33.15;17.38;;;11.50;92.70;;;;;;9165134;19;20025;-69
2023/10/27 00:18:52;;;;;;;31.40;16.90;;;11.50;92.80;;;;;;9165797;19;20637;-68
2023/10/27 00:21:58;;;;;;;35.67;18.50;;;11.50;92.80;;;;;;9163964;19;20106;-69
2023/10/27 00:25:08;;;;;;;35.45;19.10;;;11.50;92.80;;;;;;9165473;19;20015;-69
2023/10/27 00:28:16;;;;;;;33.05;17.75;;;11.50;92.90;;;;;;9164043;19;20014;-69
2023/10/27 00:31:24;;;;;;;44.60;18.05;;;11.50;93.00;;;;;;9163415;19;20120;-69
2023/10/27 00:34:29;;;;;;;32.50;18.55;;;11.50;92.80;;;;;;9165510;19;20029;-69
2023/10/27 00:37:38;;;;;;;34.90;18.52;;;11.50;92.90;;;;;;9162110;19;20019;-69
2023/10/27 00:40:44;;;;;;;39.45;19.95;;;11.50;92.80;;;;;;9163406;19;20010;-68
2023/10/27 00:43:54;;;;;;;33.30;18.27;;;11.50;93.00;;;;;;9165398;19;20377;-68
2023/10/27 00:47:00;;;;;;;33.60;18.38;;;11.50;93.10;;;;;;9166768;19;20034;-68
2023/10/27 00:50:08;;;;;;;32.55;17.92;;;11.50;93.00;;;;;;9164063;19;20014;-68
2023/10/27 00:53:14;;;;;;;36.15;18.48;;;11.40;93.00;;;;;;9164105;19;20020;-69
2023/10/27 00:56:23;;;;;;;34.75;18.48;;;11.50;93.10;;;;;;9165434;19;20019;-68
2023/10/27 00:59:32;;;;;;;32.38;18.15;;;11.50;93.20;;;;;;9164653;19;20025;-68
2023/10/27 01:02:40;;;;;;;64.78;19.65;;;11.40;92.90;;;;;;9162735;19;20030;-70
2023/10/27 01:05:46;;;;;;;33.42;18.35;;;11.40;93.00;;;;;;9166071;19;20023;-68
2023/10/27 01:08:54;;;;;;;33.50;18.17;;;11.40;93.20;;;;;;9165072;19;20033;-68
2023/10/27 01:11:59;;;;;;;40.50;19.90;;;11.40;93.20;;;;;;9160486;19;20707;-68
2023/10/27 01:15:10;;;;;;;35.75;17.85;;;11.40;93.10;;;;;;9163244;19;20021;-68
2023/10/27 01:18:15;;;;;;;31.48;17.77;;;11.40;93.10;;;;;;9162710;19;20380;-69
2023/10/27 01:21:23;;;;;;;33.05;16.85;;;11.40;93.10;;;;;;9161939;19;20010;-69
2023/10/27 01:24:31;;;;;;;37.75;18.65;;;11.40;93.30;;;;;;9164186;19;20026;-69
2023/10/27 01:27:38;;;;;;;31.45;16.88;;;11.40;93.20;;;;;;9162914;19;20364;-69
2023/10/27 01:30:44;;;;;;;33.70;16.30;;;11.40;93.20;;;;;;9160917;19;20018;-69
2023/10/27 01:33:51;;;;;;;28.42;15.63;;;11.40;93.40;;;;;;9170071;19;20017;-68
2023/10/27 01:36:57;;;;;;;30.98;14.90;;;11.30;93.40;;;;;;9173052;19;20034;-68
2023/10/27 01:40:08;;;;;;;30.45;15.57;;;11.30;93.40;;;;;;9171367;19;20018;-68
2023/10/27 01:43:13;;;;;;;34.00;16.75;;;11.30;93.10;;;;;;9171825;19;20082;-69
2023/10/27 01:46:21;;;;;;;32.72;17.08;;;11.30;93.00;;;;;;9173159;19;20018;-69
2023/10/27 01:49:26;;;;;;;32.28;16.02;;;11.30;93.20;;;;;;9175364;19;20023;-68
2023/10/27 01:52:34;;;;;;;29.50;16.92;;;11.30;93.60;;;;;;9174075;19;20017;-69
2023/10/27 01:55:42;;;;;;;37.85;16.52;;;11.20;93.20;;;;;;9172727;19;20106;-68
2023/10/27 01:58:49;;;;;;;36.30;17.30;;;11.30;93.50;;;;;;9172216;19;20010;-68
2023/10/27 02:01:54;;;;;;;35.65;17.02;;;11.30;93.30;;;;;;9171767;19;20507;-68
2023/10/27 02:05:04;;;;;;;27.98;15.45;;;11.30;93.40;;;;;;9169988;19;20010;-69
2023/10/27 02:08:09;;;;;;;29.17;16.30;;;11.20;93.40;;;;;;9173771;19;20053;-75
2023/10/27 02:11:19;;;;;;;29.63;15.50;;;11.20;93.60;;;;;;9173298;19;20006;-70
2023/10/27 02:14:25;;;;;;;28.50;16.13;;;11.20;93.30;;;;;;9175101;19;20377;-69
2023/10/27 02:17:32;;;;;;;28.80;14.60;;;11.20;93.30;;;;;;9175315;19;20015;-68
2023/10/27 02:20:38;;;;;;;28.08;14.30;;;11.20;93.40;;;;;;9174836;19;20056;-69
2023/10/27 02:23:45;;;;;;;29.45;15.35;;;11.20;93.40;;;;;;9171989;19;20021;-69
2023/10/27 02:26:53;;;;;;;27.98;15.05;;;11.30;93.50;;;;;;9168963;19;20043;-68
2023/10/27 02:30:01;;;;;;;31.42;15.32;;;11.20;93.60;;;;;;9168424;19;20464;-68
2023/10/27 02:33:06;;;;;;;27.58;15.07;;;11.20;93.50;;;;;;9171384;19;20025;-69
2023/10/27 02:36:15;;;;;;;26.50;14.82;;;11.10;93.50;;;;;;9170417;19;20014;-69
2023/10/27 02:39:20;;;;;;;27.40;13.85;;;11.10;93.80;;;;;;9167984;19;20015;-69
2023/10/27 02:42:30;;;;;;;27.60;15.23;;;11.10;93.60;;;;;;9170605;19;20023;-69
2023/10/27 02:45:36;;;;;;;28.35;15.18;;;11.10;93.60;;;;;;9167711;19;20022;-68
2023/10/27 02:48:43;;;;;;;32.45;15.95;;;11.10;93.60;;;;;;9167906;19;20026;-68
2023/10/27 02:51:49;;;;;;;33.67;15.95;;;11.10;93.70;;;;;;9167817;19;20553;-68
2023/10/27 02:54:56;;;;;;;31.85;15.75;;;11.10;93.70;;;;;;9166725;19;20491;-68
2023/10/27 02:58:05;;;;;;;33.08;16.65;;;11.10;93.70;;;;;;9169926;19;20022;-68
2023/10/27 03:01:14;;;;;;;34.42;16.75;;;11.00;94.00;;;;;;9167591;19;20018;-67
2023/10/27 03:04:20;;;;;;;36.13;17.48;;;11.10;93.90;;;;;;9168834;19;20349;-69
2023/10/27 03:07:28;;;;;;;38.95;18.23;;;11.10;94.10;;;;;;9169437;19;20123;-69
2023/10/27 03:10:33;;;;;;;36.58;16.98;;;11.10;94.10;;;;;;9169119;19;20018;-70
2023/10/27 03:13:43;;;;;;;39.35;17.40;;;11.10;94.20;;;;;;9163892;19;20134;-68
2023/10/27 03:16:49;;;;;;;35.00;16.83;;;11.10;94.20;;;;;;9168826;19;20503;-68
2023/10/27 03:19:57;;;;;;;40.42;18.55;;;11.10;94.40;;;;;;9169307;19;20022;-68
2023/10/27 03:23:02;;;;;;;40.25;18.38;;;11.00;94.60;;;;;;9170081;19;20022;-69
2023/10/27 03:26:13;;;;;;;35.15;17.20;;;11.10;94.60;;;;;;9166527;19;20053;-68
2023/10/27 03:29:21;;;;;;;40.08;17.92;;;11.10;94.70;;;;;;9164333;19;20023;-68
2023/10/27 03:32:28;;;;;;;39.05;17.77;;;11.10;95.30;;;;;;9167442;19;20030;-77
2023/10/27 03:35:34;;;;;;;42.67;18.98;;;11.10;95.90;;;;;;9167633;19;20021;-68
2023/10/27 03:38:41;;;;;;;42.38;18.38;;;11.10;94.30;;;;;;9167749;19;20025;-68
2023/10/27 03:41:47;;;;;;;46.03;17.40;;;11.10;92.50;;;;;;9165163;19;20369;-68
2023/10/27 03:44:57;;;;;;;38.33;17.75;;;11.10;91.60;;;;;;9166599;19;20714;-69
2023/10/27 03:48:03;;;;;;;38.38;17.95;;;11.10;91.60;;;;;;9165919;19;20028;-68
2023/10/27 03:51:11;;;;;;;41.45;18.65;;;11.00;91.50;;;;;;9165468;19;20090;-68
2023/10/27 03:54:16;;;;;;;37.33;18.77;;;11.10;91.50;;;;;;9167505;19;20782;-68
2023/10/27 03:57:23;;;;;;;42.50;19.58;;;11.10;91.60;;;;;;9167005;19;20025;-68
2023/10/27 04:00:31;;;;;;;54.10;20.25;;;11.10;91.60;;;;;;9164138;19;20650;-68
2023/10/27 04:03:39;;;;;;;41.38;18.40;;;11.10;91.70;;;;;;9165874;19;20492;-68
2023/10/27 04:06:45;;;;;;;38.95;18.25;;;11.10;91.30;;;;;;9164509;19;20031;-68
2023/10/27 04:09:52;;;;;;;40.08;19.35;;;11.10;91.50;;;;;;9166661;19;20025;-68
2023/10/27 04:12:57;;;;;;;38.45;17.70;;;11.10;91.60;;;;;;9158228;19;20022;-68
2023/10/27 04:16:08;;;;;;;41.20;19.20;;;11.10;91.50;;;;;;9163715;19;20015;-68
2023/10/27 04:19:13;;;;;;;44.80;18.55;;;11.10;91.40;;;;;;9166068;19;20011;-68
2023/10/27 04:22:23;;;;;;;42.55;18.90;;;11.00;91.50;;;;;;9165240;19;20011;-68
2023/10/27 04:25:28;;;;;;;40.25;18.33;;;11.10;91.50;;;;;;9163741;19;20018;-68
2023/10/27 04:28:36;;;;;;;41.40;19.48;;;11.10;91.50;;;;;;9164098;19;20515;-69
2023/10/27 04:31:44;;;;;;;46.35;19.17;;;11.00;91.50;;;;;;9165513;19;20025;-69
2023/10/27 04:34:51;;;;;;;48.33;21.20;;;11.10;91.60;;;;;;9164508;19;20010;-69
2023/10/27 04:37:58;;;;;;;44.13;19.27;;;11.10;91.60;;;;;;9164783;19;21098;-69
2023/10/27 04:41:06;;;;;;;47.20;20.85;;;11.10;91.50;;;;;;9165336;19;20022;-69
2023/10/27 04:44:12;;;;;;;42.63;18.85;;;11.00;91.60;;;;;;9164866;19;20010;-69
2023/10/27 04:47:26;;;;;;;48.72;21.10;;;11.00;91.60;;;;;;9167522;19;20345;-70
2023/10/27 04:50:32;;;;;;;44.35;20.30;;;11.00;91.70;;;;;;9166248;19;20022;-70
2023/10/27 04:53:40;;;;;;;49.38;20.02;;;11.00;91.70;;;;;;9164995;19;20021;-70
2023/10/27 04:56:45;;;;;;;47.25;20.92;;;11.00;91.90;;;;;;9167974;19;20039;-70
2023/10/27 04:59:53;;;;;;;48.92;20.17;;;11.00;91.80;;;;;;9166661;19;20554;-70
2023/10/27 05:03:02;;;;;;;49.33;20.63;;;11.10;92.00;;;;;;9166585;19;20371;-70
2023/10/27 05:06:11;;;;;;;42.17;19.48;;;11.00;92.00;;;;;;9169628;19;20014;-70
2023/10/27 05:09:18;;;;;;;43.80;19.52;;;11.00;92.30;;;;;;9183032;19;20377;-70
2023/10/27 05:12:26;;;;;;;43.90;18.90;;;11.00;92.40;;;;;;9179404;19;20006;-71
2023/10/27 05:15:31;;;;;;;44.85;18.85;;;11.00;92.70;;;;;;9185838;19;20018;-71
2023/10/27 05:18:42;;;;;;;41.70;18.45;;;11.00;93.00;;;;;;9181541;19;20357;-73
2023/10/27 05:21:50;;;;;;;45.10;19.17;;;10.80;92.40;;;;;;9184381;19;20022;-71
2023/10/27 05:25:02;;;;;;;37.45;17.42;;;10.90;92.60;;;;;;9190790;19;20006;-71
2023/10/27 05:28:08;;;;;;;39.38;16.83;;;10.90;93.30;;;;;;9190593;19;20026;-71
2023/10/27 05:31:16;;;;;;;37.67;17.42;;;10.80;93.80;;;;;;9190010;19;20018;-71
2023/10/27 05:34:26;;;;;;;39.17;17.67;;;10.70;92.80;;;;;;9183634;19;20014;-70
2023/10/27 05:37:38;;;;;;;38.60;17.15;;;10.90;92.80;;;;;;9183291;19;20017;-71
2023/10/27 05:40:43;;;;;;;38.45;16.80;;;10.90;92.90;;;;;;9181850;19;20025;-71
2023/10/27 05:43:54;;;;;;;39.22;17.10;;;10.90;93.00;;;;;;9182297;19;20105;-70
2023/10/27 05:47:01;;;;;;;37.05;16.45;;;11.00;92.80;;;;;;9183811;19;20346;-71
2023/10/27 05:50:12;;;;;;;42.47;18.45;;;10.90;92.80;;;;;;9183679;19;20026;-71
2023/10/27 05:53:17;;;;;;;40.95;18.23;;;10.80;92.80;;;;;;9181074;19;20018;-70
2023/10/27 05:56:25;;;;;;;41.25;18.02;;;10.80;92.80;;;;;;9182669;19;20034;-71
2023/10/27 05:59:31;;;;;;;37.42;18.15;;;10.80;93.00;;;;;;9181469;19;20014;-71
2023/10/27 06:02:38;;;;;;;39.13;17.42;;;10.80;93.10;;;;;;9180098;19;20484;-71
2023/10/27 06:05:46;;;;;;;46.70;18.80;;;10.80;93.20;;;;;;9180929;19;20784;-71
2023/10/27 06:08:53;;;;;;;46.13;18.77;;;10.90;93.70;;;;;;9181694;19;20020;-71
2023/10/27 06:11:59;;;;;;;43.33;17.90;;;10.80;93.20;;;;;;9176559;19;20018;-71
2023/10/27 06:15:08;;;;;;;45.28;19.17;;;10.80;92.90;;;;;;9181668;19;20429;-72
2023/10/27 06:18:13;;;;;;;47.65;18.48;;;10.80;92.80;;;;;;9178855;19;20014;-72
2023/10/27 06:21:27;;;;;;;52.42;19.50;;;10.90;93.10;;;;;;9171659;19;20387;-72
2023/10/27 06:24:32;;;;;;;53.83;19.95;;;10.80;93.10;;;;;;9172584;19;20018;-71
2023/10/27 06:27:40;;;;;;;45.45;20.02;;;10.80;93.40;;;;;;9170553;19;20132;-71
2023/10/27 06:30:45;;;;;;;44.95;19.33;;;10.80;94.50;;;;;;9171429;19;20006;-71
2023/10/27 06:33:54;;;;;;;48.15;20.42;;;10.90;94.20;;;;;;9170092;19;20046;-71
2023/10/27 06:37:03;;;;;;;45.15;18.20;;;10.90;94.50;;;;;;9172710;19;20015;-71
2023/10/27 06:40:11;;;;;;;50.60;20.63;;;10.80;93.60;;;;;;9172787;19;20337;-71
2023/10/27 06:43:17;;;;;;;52.65;21.42;;;10.80;93.30;;;;;;9172277;19;20026;-72
2023/10/27 06:46:32;;;;;;;48.65;20.40;;;10.90;93.20;;;;;;9171658;19;20022;-74
2023/10/27 06:49:43;;;;;;;50.05;20.45;;;10.90;94.30;;;;;;9170753;19;20048;-71
2023/10/27 06:52:53;;;;;;;48.55;20.52;;;10.80;93.00;;;;;;9171341;19;20022;-71
2023/10/27 06:55:58;;;;;;;54.90;22.80;;;10.90;93.10;;;;;;9170712;19;20018;-71
2023/10/27 06:59:06;;;;;;;54.92;20.50;;;10.80;93.30;;;;;;9171246;19;20015;-71
2023/10/27 07:02:11;;;;;;;51.58;20.38;;;10.90;93.20;;;;;;9172898;19;20018;-70
2023/10/27 07:05:19;;;;;;;46.45;19.13;;;10.90;93.50;;;;;;9170137;19;20006;-71
2023/10/27 07:08:27;;;;;;;50.90;21.17;;;10.90;93.50;;;;;;9171196;19;20345;-70
2023/10/27 07:11:35;;;;;;;53.85;21.45;;;10.90;93.60;;;;;;9165515;19;20030;-70
2023/10/27 07:14:40;;;;;;;53.92;21.50;;;10.90;93.70;;;;;;9169825;19;20681;-72
2023/10/27 07:17:48;;;;;;;48.70;20.25;;;10.90;94.70;;;;;;9172206;19;20015;-71
2023/10/27 07:20:54;;;;;;;49.38;19.45;;;10.90;94.20;;;;;;9170240;19;20014;-71
2023/10/27 07:24:04;;;;;;;50.42;20.13;;;11.30;93.50;;;;;;9172492;19;20499;-71
2023/10/27 07:27:13;;;;;;;47.30;19.45;;;11.00;93.00;;;;;;9171149;19;20019;-71
2023/10/27 07:30:20;;;;;;;47.30;19.15;;;10.90;92.60;;;;;;9169193;19;20056;-71
2023/10/27 07:33:26;;;;;;;55.03;21.38;;;10.90;93.00;;;;;;9169601;19;20306;-70
2023/10/27 07:36:33;;;;;;;44.05;18.45;;;11.00;93.10;;;;;;9172566;19;20015;-72
2023/10/27 07:39:41;;;;;;;48.72;19.98;;;11.00;93.50;;;;;;9172251;19;20411;-72
2023/10/27 07:42:49;;;;;;;46.58;19.83;;;11.00;94.60;;;;;;9168889;19;20017;-72
2023/10/27 07:45:55;;;;;;;48.47;19.08;;;11.00;94.20;;;;;;9171891;19;20019;-72
2023/10/27 07:49:03;;;;;;;52.83;21.20;;;11.00;94.10;;;;;;9171592;19;20018;-73
2023/10/27 07:52:09;;;;;;;47.20;20.58;;;11.00;94.20;;;;;;9171283;19;20015;-72
2023/10/27 07:55:19;;;;;;;47.13;19.40;;;11.10;92.80;;;;;;9170151;19;20021;-71
2023/10/27 07:58:25;;;;;;;47.53;19.48;;;11.00;92.80;;;;;;9172136;19;20014;-72
2023/10/27 08:01:34;;;;;;;44.67;18.98;;;11.10;92.60;;;;;;9171004;19;20022;-71
2023/10/27 08:04:40;;;;;;;47.38;17.88;;;11.10;92.80;;;;;;9171546;19;20074;-71
2023/10/27 08:07:49;;;;;;;44.10;18.55;;;11.10;92.50;;;;;;9173285;19;20018;-72
2023/10/27 08:10:57;;;;;;;45.45;18.92;;;11.10;92.70;;;;;;9159339;19;20014;-72
2023/10/27 08:14:04;;;;;;;47.72;18.70;;;11.10;92.50;;;;;;9168978;19;20131;-71
2023/10/27 08:17:09;;;;;;;46.75;18.52;;;11.10;92.60;;;;;;9172060;19;20821;-71
2023/10/27 08:20:19;;;;;;;44.88;18.98;;;11.10;92.60;;;;;;9168251;19;20017;-71
2023/10/27 08:23:24;;;;;;;40.92;17.33;;;11.20;92.80;;;;;;9169873;19;20021;-76
2023/10/27 08:26:35;;;;;;;44.13;18.40;;;11.20;92.70;;;;;;9171114;19;20499;-71
2023/10/27 08:29:40;;;;;;;44.40;17.17;;;11.20;92.90;;;;;;9165013;19;20557;-71
2023/10/27 08:32:48;;;;;;;46.47;18.73;;;11.20;93.10;;;;;;9171057;19;20010;-72
2023/10/27 08:35:53;;;;;;;46.20;19.02;;;11.20;93.10;;;;;;9168385;19;20094;-75
2023/10/27 08:39:01;;;;;;;43.83;18.05;;;11.30;92.80;;;;;;9177316;19;20019;-72
2023/10/27 08:42:10;;;;;;;43.25;17.35;;;11.30;92.80;;;;;;9175004;19;20464;-72
2023/10/27 08:45:18;;;;;;;39.83;17.90;;;11.30;92.70;;;;;;9174469;19;20474;-71
2023/10/27 08:48:28;;;;;;;46.22;18.55;;;11.30;92.80;;;;;;9173330;19;20018;-71
2023/10/27 08:51:36;;;;;;;36.88;16.17;;;11.30;92.60;;;;;;9169340;19;20086;-74
2023/10/27 08:54:45;;;;;;;42.47;17.95;;;11.30;92.60;;;;;;9172760;19;20015;-71
2023/10/27 08:57:57;;;;;;;40.83;16.15;;;11.30;92.80;;;;;;9169836;19;20025;-71
2023/10/27 09:01:03;;;;;;;38.65;16.98;;;11.40;92.80;;;;;;9171041;19;20017;-76
2023/10/27 09:04:14;;;;;;;34.20;16.15;;;11.40;93.10;;;;;;9169324;19;20350;-75
2023/10/27 09:07:23;;;;;;;34.70;15.43;;;11.40;93.10;;;;;;9168566;19;20082;-72
2023/10/27 09:10:30;;;;;;;34.20;15.43;;;11.30;93.10;;;;;;9167174;19;20021;-72
2023/10/27 09:13:43;;;;;;;34.85;14.85;;;11.40;93.10;;;;;;9169908;19;20011;-72
2023/10/27 09:16:50;;;;;;;33.78;15.63;;;11.40;93.10;;;;;;9168767;19;20481;-72
2023/10/27 09:20:06;;;;;;;33.25;14.88;;;11.50;93.20;;;;;;9169826;19;20022;-73
2023/10/27 09:23:15;;;;;;;33.80;15.50;;;11.50;93.20;;;;;;9165982;19;20026;-72
2023/10/27 09:26:20;;;;;;;42.50;14.68;;;11.50;93.50;;;;;;9168465;19;20113;-72
2023/10/27 09:29:31;;;;;;;31.00;15.02;;;11.80;94.50;;;;;;9158232;19;20037;-71
2023/10/27 09:32:36;;;;;;;34.35;16.13;;;11.50;93.60;;;;;;9165626;19;20017;-73
2023/10/27 09:35:45;;;;;;;35.85;15.57;;;11.50;93.90;;;;;;9162446;19;20014;-73
2023/10/27 09:38:50;;;;;;;27.38;12.70;;;11.60;94.40;;;;;;9164943;19;20625;-71
2023/10/27 09:42:03;;;;;;;31.48;14.00;;;11.60;94.10;;;;;;9163920;19;20026;-72
2023/10/27 09:45:14;;;;;;;29.17;13.60;;;11.50;93.90;;;;;;9164934;19;20022;-74
2023/10/27 09:48:27;;;;;;;29.83;14.95;;;11.50;93.60;;;;;;9165376;19;20362;-74
2023/10/27 09:51:33;;;;;;;28.58;12.98;;;11.60;94.40;;;;;;9165977;19;20382;-73
2023/10/27 09:54:41;;;;;;;29.30;13.73;;;11.70;93.60;;;;;;9174217;19;20043;-73
2023/10/27 09:57:48;;;;;;;26.50;12.65;;;11.60;92.70;;;;;;9168734;19;20018;-72
2023/10/27 10:00:59;;;;;;;29.85;13.73;;;11.60;92.60;;;;;;9172281;19;20357;-73
2023/10/27 10:04:05;;;;;;;29.13;12.82;;;11.60;92.50;;;;;;9172443;19;20045;-74
2023/10/27 10:07:13;;;;;;;23.55;12.30;;;11.60;92.40;;;;;;9172797;19;20468;-72
2023/10/27 10:10:21;;;;;;;27.30;11.73;;;11.60;92.50;;;;;;9173628;19;20082;-73
2023/10/27 10:13:38;;;;;;;27.33;13.43;;;11.70;92.30;;;;;;9175703;19;20018;-73
2023/10/27 10:16:48;;;;;;;23.88;12.43;;;11.70;92.50;;;;;;9173297;19;20388;-73
2023/10/27 10:19:55;;;;;;;38.30;16.48;;;11.80;92.40;;;;;;9175644;19;20025;-71
2023/10/27 10:23:01;;;;;;;38.42;15.38;;;11.70;92.30;;;;;;9174250;19;20018;-72
2023/10/27 10:26:08;;;;;;;28.08;13.00;;;11.70;92.40;;;;;;9174453;19;20337;-72
2023/10/27 10:29:32;;;;;;;27.92;13.02;;;11.70;92.50;;;;;;9167657;19;20018;-73
2023/10/27 10:32:45;;;;;;;21.80;11.90;;;11.80;92.30;;;;;;9173783;19;20015;-73
2023/10/27 10:35:51;;;;;;;21.73;11.15;;;11.70;92.40;;;;;;9169367;19;20041;-72
2023/10/27 10:39:03;;;;;;;19.90;10.07;;;11.80;92.50;;;;;;9172336;19;20018;-73
2023/10/27 10:42:09;;;;;;;21.30;10.77;;;11.80;92.60;;;;;;9173027;19;20025;-72
2023/10/27 10:45:16;;;;;;;19.77;10.90;;;11.90;92.50;;;;;;9172808;19;20388;-74
2023/10/27 10:48:27;;;;;;;22.05;10.23;;;11.80;92.70;;;;;;9175382;19;20151;-74
2023/10/27 10:51:39;;;;;;;26.40;11.70;;;11.80;92.60;;;;;;9173041;19;20026;-71
2023/10/27 10:54:44;;;;;;;26.55;11.07;;;11.80;92.60;;;;;;9171591;19;20032;-71
2023/10/27 10:57:52;;;;;;;21.75;11.30;;;11.80;92.90;;;;;;9169039;19;20677;-72
2023/10/27 11:01:00;;;;;;;22.98;11.13;;;11.90;92.80;;;;;;9172328;19;20658;-73
2023/10/27 11:04:11;;;;;;;19.38;10.80;;;11.90;92.80;;;;;;9171114;19;20480;-73
2023/10/27 11:07:18;;;;;;;23.38;10.95;;;11.90;93.20;;;;;;9169993;19;20060;-73
2023/10/27 11:10:26;;;;;;;19.60;10.82;;;12.00;92.80;;;;;;9174021;19;20013;-73
2023/10/27 11:13:33;;;;;;;21.10;10.98;;;12.00;93.00;;;;;;9174271;19;20019;-73
2023/10/27 11:16:41;;;;;;;20.40;10.23;;;12.00;92.80;;;;;;9165572;19;20571;-72
2023/10/27 11:20:00;;;;;;;20.83;10.25;;;12.00;93.00;;;;;;9168255;19;20011;-73
2023/10/27 11:23:11;;;;;;;20.50;10.27;;;12.00;93.10;;;;;;9171509;19;20014;-73
2023/10/27 11:26:18;;;;;;;23.60;11.43;;;12.10;93.00;;;;;;9167648;19;20025;-73
2023/10/27 11:29:26;;;;;;;21.20;10.18;;;12.10;93.10;;;;;;9159318;19;21010;-72
2023/10/27 11:32:32;;;;;;;20.27;10.10;;;12.10;93.60;;;;;;9166175;19;20019;-72
2023/10/27 11:35:49;;;;;;;16.50;9.15;;;11.70;94.70;;;;;;9168574;19;20225;-73
2023/10/27 11:38:55;;;;;;;19.33;8.98;;;12.10;94.60;;;;;;9168752;19;20099;-73
2023/10/27 11:42:04;;;;;;;18.45;9.60;;;12.20;94.20;;;;;;9171124;19;20021;-72
2023/10/27 11:45:10;;;;;;;16.00;9.00;;;12.20;94.60;;;;;;9171434;19;20902;-73
2023/10/27 11:48:18;;;;;;;14.82;8.55;;;12.20;94.40;;;;;;9171567;19;20018;-72
2023/10/27 11:51:29;;;;;;;18.95;9.60;;;12.20;93.90;;;;;;9171830;19;20010;-73
2023/10/27 11:54:37;;;;;;;15.50;8.50;;;12.20;95.50;;;;;;9175736;19;20023;-73
2023/10/27 11:57:42;;;;;;;18.63;8.95;;;12.30;94.60;;;;;;9172138;19;20010;-73
2023/10/27 12:00:50;;;;;;;17.15;8.68;;;12.20;94.00;;;;;;9169286;19;20885;-73
2023/10/27 12:03:55;;;;;;;14.23;8.02;;;12.20;94.10;;;;;;9165005;19;20116;-73
2023/10/27 12:07:06;;;;;;;15.73;7.40;;;12.20;94.00;;;;;;9164537;19;20011;-71
2023/10/27 12:10:12;;;;;;;15.85;8.23;;;12.40;94.40;;;;;;9162102;19;20010;-74
2023/10/27 12:13:20;;;;;;;17.23;9.15;;;12.30;94.40;;;;;;9160092;19;20388;-72
2023/10/27 12:16:27;;;;;;;15.52;8.82;;;12.30;94.60;;;;;;9165239;19;20853;-71
2023/10/27 12:19:35;;;;;;;12.82;8.02;;;12.40;94.90;;;;;;9168108;19;20493;-73
2023/10/27 12:22:48;;;;;;;13.50;7.55;;;12.40;92.70;;;;;;9166717;19;20022;-73
2023/10/27 12:25:56;;;;;;;14.00;8.05;;;12.40;92.80;;;;;;9166544;19;20015;-72
2023/10/27 12:29:02;;;;;;;17.13;8.00;;;12.40;92.80;;;;;;9164225;19;20011;-73
2023/10/27 12:32:09;;;;;;;16.25;8.48;;;12.40;92.80;;;;;;9162600;19;20018;-73
2023/10/27 12:35:15;;;;;;;14.30;7.55;;;12.50;93.00;;;;;;9168191;19;20463;-72
2023/10/27 12:38:26;;;;;;;13.32;7.90;;;12.50;93.00;;;;;;9166752;19;20022;-73
2023/10/27 12:41:32;;;;;;;14.50;7.55;;;12.50;93.00;;;;;;9167437;19;20010;-72
2023/10/27 12:44:39;;;;;;;14.63;7.70;;;12.60;93.10;;;;;;9167957;19;20017;-74
2023/10/27 12:47:46;;;;;;;14.05;8.10;;;12.60;93.10;;;;;;9167326;19;20023;-72
2023/10/27 12:50:54;;;;;;;13.57;8.05;;;12.60;93.00;;;;;;9168225;19;20346;-73
2023/10/27 12:54:02;;;;;;;10.73;6.10;;;12.50;93.20;;;;;;9168502;19;20528;-73
2023/10/27 12:57:09;;;;;;;10.65;6.63;;;12.60;93.10;;;;;;9166712;19;20026;-73
2023/10/27 13:00:20;;;;;;;13.48;7.50;;;12.60;93.10;;;;;;9165749;19;20026;-72
2023/10/27 13:03:28;;;;;;;13.30;7.57;;;12.60;93.10;;;;;;9168487;19;20018;-73
2023/10/27 13:06:36;;;;;;;13.18;7.10;;;12.70;93.00;;;;;;9168784;19;20017;-73
2023/10/27 13:09:46;;;;;;;13.00;6.85;;;12.60;92.90;;;;;;9168038;19;20018;-73
2023/10/27 13:12:55;;;;;;;12.70;7.18;;;12.60;92.90;;;;;;9167583;19;20026;-72
2023/10/27 13:16:03;;;;;;;13.00;7.60;;;12.60;93.10;;;;;;9166718;19;20028;-71
2023/10/27 13:19:08;;;;;;;14.32;7.15;;;12.70;93.00;;;;;;9167615;19;20090;-72
2023/10/27 13:22:15;;;;;;;10.27;6.70;;;12.70;93.00;;;;;;9165277;19;20496;-72
2023/10/27 13:25:24;;;;;;;10.57;6.22;;;12.70;93.00;;;;;;9167247;19;20078;-71
2023/10/27 13:28:31;;;;;;;13.02;6.88;;;12.70;93.00;;;;;;9167535;19;20014;-72
2023/10/27 13:31:37;;;;;;;12.63;6.90;;;12.80;93.30;;;;;;9172915;19;20014;-73
2023/10/27 13:34:47;;;;;;;10.80;6.40;;;12.70;93.10;;;;;;9175974;19;20796;-73
2023/10/27 13:38:04;;;;;;;11.45;6.43;;;12.70;93.00;;;;;;9173586;19;20010;-74
2023/10/27 13:41:20;;;;;;;9.93;6.30;;;12.70;92.90;;;;;;9176752;19;20007;-72
2023/10/27 13:44:27;;;;;;;11.70;6.28;;;12.70;93.20;;;;;;9175595;19;20014;-73
2023/10/27 13:47:37;;;;;;;10.30;6.13;;;12.80;93.20;;;;;;9175928;19;20017;-71
2023/10/27 13:50:43;;;;;;;11.32;7.07;;;12.70;93.00;;;;;;9175801;19;20078;-74
2023/10/27 13:53:51;;;;;;;11.40;7.07;;;12.80;93.10;;;;;;9175911;19;20033;-72
2023/10/27 13:56:59;;;;;;;10.45;6.30;;;12.80;93.10;;;;;;9174840;19;20010;-73
2023/10/27 14:00:12;;;;;;;14.57;7.15;;;12.80;93.20;;;;;;9174022;19;20021;-73
2023/10/27 14:03:17;;;;;;;11.02;6.85;;;12.80;93.10;;;;;;9175266;19;20566;-73
2023/10/27 14:06:25;;;;;;;12.45;5.95;;;12.80;93.20;;;;;;9175907;19;20500;-75
2023/10/27 14:09:31;;;;;;;9.75;5.97;;;12.80;93.20;;;;;;9175107;19;20011;-72
2023/10/27 14:12:49;;;;;;;10.38;5.90;;;12.80;93.20;;;;;;9174023;19;20030;-73
2023/10/27 14:15:56;;;;;;;8.52;5.32;;;12.90;93.30;;;;;;9175292;19;20014;-73
2023/10/27 14:19:03;;;;;;;10.60;5.97;;;12.90;93.10;;;;;;9171105;19;20018;-74
2023/10/27 14:22:08;;;;;;;9.85;6.25;;;12.80;93.10;;;;;;9173472;19;20018;-73
2023/10/27 14:25:16;;;;;;;8.43;5.32;;;12.90;93.10;;;;;;9174613;19;20025;-72
2023/10/27 14:28:25;;;;;;;8.15;5.68;;;12.90;93.20;;;;;;9172088;19;20029;-74
2023/10/27 14:31:33;;;;;;;9.38;5.68;;;12.80;93.00;;;;;;9170754;19;20026;-72
2023/10/27 14:34:40;;;;;;;9.82;6.03;;;12.90;93.10;;;;;;9172410;19;20015;-72
2023/10/27 14:37:47;;;;;;;7.50;5.32;;;12.90;93.00;;;;;;9170208;19;20387;-73
2023/10/27 14:40:55;;;;;;;7.80;5.82;;;12.90;93.00;;;;;;9170032;19;20014;-72
2023/10/27 14:44:06;;;;;;;9.32;6.03;;;12.90;93.10;;;;;;9171622;19;20014;-73
2023/10/27 14:47:12;;;;;;;9.02;6.05;;;12.90;93.10;;;;;;9171189;19;20029;-74
2023/10/27 14:50:19;;;;;;;8.88;5.90;;;12.90;93.20;;;;;;9173197;19;20007;-73
2023/10/27 14:53:25;;;;;;;9.00;5.93;;;12.90;93.20;;;;;;9172933;19;20041;-75
2023/10/27 14:56:32;;;;;;;10.18;6.15;;;12.90;93.10;;;;;;9171059;19;20015;-75
2023/10/27 14:59:40;;;;;;;10.23;5.80;;;12.90;93.20;;;;;;9170014;19;20048;-75
2023/10/27 15:02:48;;;;;;;7.90;5.20;;;12.90;93.30;;;;;;9173241;19;20021;-74
2023/10/27 15:05:57;;;;;;;7.00;4.70;;;12.90;93.30;;;;;;9173010;19;20019;-74
2023/10/27 15:09:04;;;;;;;7.90;5.50;;;12.90;93.30;;;;;;9172961;19;20018;-75
2023/10/27 15:12:10;;;;;;;9.38;5.07;;;12.90;93.30;;;;;;9171966;19;20031;-74
2023/10/27 15:15:22;;;;;;;7.50;4.75;;;12.90;93.20;;;;;;9169196;19;20029;-72
2023/10/27 15:18:28;;;;;;;9.00;5.85;;;12.90;93.20;;;;;;9171600;19;20404;-72
2023/10/27 15:21:35;;;;;;;10.02;5.18;;;13.00;93.40;;;;;;9172126;19;20046;-76
2023/10/27 15:24:41;;;;;;;7.88;5.35;;;12.90;93.30;;;;;;9171834;19;20033;-75
2023/10/27 15:27:49;;;;;;;8.00;4.88;;;12.90;93.30;;;;;;9168146;19;20021;-74
2023/10/27 15:31:05;;;;;;;7.60;5.28;;;12.80;93.30;;;;;;9166327;19;20021;-74
2023/10/27 15:34:13;;;;;;;8.68;4.90;;;12.90;93.30;;;;;;9171776;19;20357;-76
2023/10/27 15:37:21;;;;;;;6.00;4.50;;;12.90;93.20;;;;;;9171516;19;20022;-73
2023/10/27 15:40:29;;;;;;;6.80;4.72;;;12.90;93.20;;;;;;9170464;19;20019;-72
2023/10/27 15:43:35;;;;;;;9.45;5.85;;;12.90;93.20;;;;;;9170583;19;20086;-73
2023/10/27 15:46:45;;;;;;;7.57;5.15;;;12.90;93.40;;;;;;9170784;19;20026;-74
2023/10/27 15:49:51;;;;;;;7.82;5.50;;;12.80;93.20;;;;;;9169854;19;20898;-73
2023/10/27 15:52:58;;;;;;;9.15;5.25;;;12.90;93.30;;;;;;9169779;19;20018;-74
2023/10/27 15:56:04;;;;;;;9.18;5.82;;;12.80;93.30;;;;;;9168706;19;20072;-74